NORTHEAST SUFFOLK  -  Winter Weather Advisory Winter Weather Advisory        NORTHERN NASSAU  -  Winter Weather Advisory Winter Weather Advisory        NORTHWEST SUFFOLK  -  Winter Weather Advisory Winter Weather Advisory        SOUTHEAST SUFFOLK  -  Winter Weather Advisory Winter Weather Advisory        SOUTHERN NASSAU  -  Winter Weather Advisory Winter Weather Advisory        SOUTHWEST SUFFOLK  -  Winter Weather Advisory Winter Weather Advisory      

Active alerts

Northern Nassau
  Details for Northern Nassau Winter Weather Advisory
Southern Nassau
  Details for Southern Nassau Winter Weather Advisory
Northwest Suffolk
  Details for Northwest Suffolk Winter Weather Advisory
Southwest Suffolk
  Details for Southwest Suffolk Winter Weather Advisory
Northeast Suffolk
  Details for Northeast Suffolk Winter Weather Advisory
Southeast Suffolk
  Details for Southeast Suffolk Winter Weather Advisory


WXM80 ListenWXM80 Stop

You find our weather info also at:

UK Metoffice

WeatherCloud

Weather Underground

Northeastern Weather Network

AWEKAS

Citizen Weather Observer Program (CWOP)

HAMweather, WeatherForYou, PWS Weather


Weather Underground History page Text

Daily Summary for September 22, 2017 Units:  Both    English   Metric
« Previous Day
Next Day »
Daily Weekly Monthly Yearly Custom
  High: Low: Average:
Temperature: 84.6 °F /  29.2 °C 65.7 °F /  18.7 °C 72.8 °F /  22.7 °C
Dew Point: 68.2 °F /  20.1 °C 53.3 °F /  11.8 °C 60.4 °F /  15.8 °C
Humidity: 77 % 51 % 65 %
Wind Speed: 9.1 mph /  14.6 km/h - 5.1 mph /  8.2 km/h
Wind Gust: 15.0 mph /  24.1 km/h - -
Wind:- - East
Pressure: 29.95 in /  1014.1 hPa 29.85 in /  1010.7 hPa -
Precipitation: 0.00 in /  0 mm    
Historical Graphs
 
 
Tabular Data for September 22, 2017
Time Temperature Dew Point Pressure Wind Wind Speed Wind Gust Humidity Rainfall Rate (Hourly)
00:04 70.1 °F /  21.2 °C 57.4 °F /  14.1 °C 29.94 in /  1013.8 hPa North 4.9 mph /  7.9 km/h 11.5 mph /  18.5 km/h 64 % 0.00 in /  0 mm
00:09 70.1 °F /  21.2 °C 57.4 °F /  14.1 °C 29.94 in /  1013.8 hPa NNE 6.0 mph /  9.7 km/h 8.1 mph /  13 km/h 64 % 0.00 in /  0 mm
00:14 70.0 °F /  21.1 °C 57.3 °F /  14.1 °C 29.94 in /  1013.8 hPa North 6.3 mph /  10.1 km/h 11.5 mph /  18.5 km/h 64 % 0.00 in /  0 mm
00:15 70.0 °F /  21.1 °C 57.3 °F /  14.1 °C 29.94 in /  1013.8 hPa NNE 5.7 mph /  9.2 km/h 12.0 mph /  19.3 km/h 64 % 0.00 in /  0 mm
00:20 70.0 °F /  21.1 °C 57.3 °F /  14.1 °C 29.94 in /  1013.8 hPa North 6.3 mph /  10.1 km/h 10.4 mph /  16.7 km/h 64 % 0.00 in /  0 mm
00:25 69.9 °F /  21.1 °C 56.7 °F /  13.7 °C 29.94 in /  1013.8 hPa NNE 6.3 mph /  10.1 km/h 8.1 mph /  13 km/h 63 % 0.00 in /  0 mm
00:31 69.9 °F /  21.1 °C 57.2 °F /  14 °C 29.94 in /  1013.8 hPa NNE 7.0 mph /  11.3 km/h 12.0 mph /  19.3 km/h 64 % 0.00 in /  0 mm
00:36 69.9 °F /  21.1 °C 57.6 °F /  14.2 °C 29.94 in /  1013.8 hPa NNE 7.0 mph /  11.3 km/h 10.0 mph /  16.1 km/h 65 % 0.00 in /  0 mm
00:41 69.8 °F /  21 °C 57.1 °F /  13.9 °C 29.94 in /  1013.8 hPa NNE 7.0 mph /  11.3 km/h 13.0 mph /  20.9 km/h 64 % 0.00 in /  0 mm
00:46 69.7 °F /  20.9 °C 57.0 °F /  13.9 °C 29.94 in /  1013.8 hPa NNE 7.0 mph /  11.3 km/h 12.0 mph /  19.3 km/h 64 % 0.00 in /  0 mm
00:51 69.7 °F /  20.9 °C 57.0 °F /  13.9 °C 29.95 in /  1014.1 hPa NNE 6.0 mph /  9.7 km/h 12.0 mph /  19.3 km/h 64 % 0.00 in /  0 mm
00:56 69.6 °F /  20.9 °C 56.9 °F /  13.8 °C 29.95 in /  1014.1 hPa NNE 7.0 mph /  11.3 km/h 13.0 mph /  20.9 km/h 64 % 0.00 in /  0 mm
01:01 69.6 °F /  20.9 °C 56.4 °F /  13.6 °C 29.95 in /  1014.1 hPa NNE 5.4 mph /  8.7 km/h 12.7 mph /  20.4 km/h 63 % 0.00 in /  0 mm
01:06 69.5 °F /  20.8 °C 56.8 °F /  13.8 °C 29.95 in /  1014.1 hPa North 5.6 mph /  9 km/h 8.1 mph /  13 km/h 64 % 0.00 in /  0 mm
01:11 69.5 °F /  20.8 °C 56.3 °F /  13.5 °C 29.95 in /  1014.1 hPa North 4.3 mph /  6.9 km/h 9.2 mph /  14.8 km/h 63 % 0.00 in /  0 mm
01:16 69.4 °F /  20.8 °C 56.7 °F /  13.7 °C 29.94 in /  1013.8 hPa NNE 6.8 mph /  10.9 km/h 11.5 mph /  18.5 km/h 64 % 0.00 in /  0 mm
01:21 69.4 °F /  20.8 °C 56.3 °F /  13.5 °C 29.94 in /  1013.8 hPa NNE 4.5 mph /  7.2 km/h 10.4 mph /  16.7 km/h 63 % 0.00 in /  0 mm
01:26 69.3 °F /  20.7 °C 56.2 °F /  13.4 °C 29.94 in /  1013.8 hPa NE 5.5 mph /  8.9 km/h 11.5 mph /  18.5 km/h 63 % 0.00 in /  0 mm
01:31 69.3 °F /  20.7 °C 56.2 °F /  13.4 °C 29.94 in /  1013.8 hPa North 5.6 mph /  9 km/h 9.0 mph /  14.5 km/h 63 % 0.00 in /  0 mm
01:36 69.3 °F /  20.7 °C 56.2 °F /  13.4 °C 29.94 in /  1013.8 hPa NNE 6.2 mph /  10 km/h 10.4 mph /  16.7 km/h 63 % 0.00 in /  0 mm
01:41 69.2 °F /  20.7 °C 56.1 °F /  13.4 °C 29.94 in /  1013.8 hPa NNE 6.0 mph /  9.7 km/h 10.4 mph /  16.7 km/h 63 % 0.00 in /  0 mm
01:46 69.2 °F /  20.7 °C 56.5 °F /  13.6 °C 29.94 in /  1013.8 hPa NE 8.2 mph /  13.2 km/h 12.0 mph /  19.3 km/h 64 % 0.00 in /  0 mm
01:51 69.1 °F /  20.6 °C 56.0 °F /  13.3 °C 29.94 in /  1013.8 hPa NNE 7.0 mph /  11.3 km/h 10.4 mph /  16.7 km/h 63 % 0.00 in /  0 mm
01:56 69.0 °F /  20.6 °C 55.4 °F /  13 °C 29.93 in /  1013.4 hPa NNE 5.2 mph /  8.4 km/h 10.0 mph /  16.1 km/h 62 % 0.00 in /  0 mm
02:01 69.0 °F /  20.6 °C 55.9 °F /  13.3 °C 29.93 in /  1013.4 hPa North 7.7 mph /  12.4 km/h 11.0 mph /  17.7 km/h 63 % 0.00 in /  0 mm
02:06 69.0 °F /  20.6 °C 55.4 °F /  13 °C 29.93 in /  1013.4 hPa NE 5.8 mph /  9.3 km/h 9.2 mph /  14.8 km/h 62 % 0.00 in /  0 mm
02:11 68.9 °F /  20.5 °C 55.8 °F /  13.2 °C 29.93 in /  1013.4 hPa NNE 5.5 mph /  8.9 km/h 9.2 mph /  14.8 km/h 63 % 0.00 in /  0 mm
02:16 68.9 °F /  20.5 °C 55.3 °F /  12.9 °C 29.93 in /  1013.4 hPa NNE 4.5 mph /  7.2 km/h 9.2 mph /  14.8 km/h 62 % 0.00 in /  0 mm
02:21 68.9 °F /  20.5 °C 55.3 °F /  12.9 °C 29.93 in /  1013.4 hPa NNW 6.8 mph /  10.9 km/h 11.0 mph /  17.7 km/h 62 % 0.00 in /  0 mm
02:26 68.8 °F /  20.4 °C 54.8 °F /  12.7 °C 29.93 in /  1013.4 hPa North 7.5 mph /  12.1 km/h 12.7 mph /  20.4 km/h 61 % 0.00 in /  0 mm
02:31 68.7 °F /  20.4 °C 55.2 °F /  12.9 °C 29.93 in /  1013.4 hPa NNW 7.6 mph /  12.2 km/h 11.5 mph /  18.5 km/h 62 % 0.00 in /  0 mm
02:36 68.6 °F /  20.3 °C 55.1 °F /  12.8 °C 29.92 in /  1013.1 hPa NNE 7.6 mph /  12.2 km/h 13.0 mph /  20.9 km/h 62 % 0.00 in /  0 mm
02:41 68.6 °F /  20.3 °C 55.1 °F /  12.8 °C 29.92 in /  1013.1 hPa North 8.1 mph /  13 km/h 9.2 mph /  14.8 km/h 62 % 0.00 in /  0 mm
02:46 68.5 °F /  20.3 °C 55.4 °F /  13 °C 29.92 in /  1013.1 hPa NNE 6.6 mph /  10.6 km/h 13.8 mph /  22.2 km/h 63 % 0.00 in /  0 mm
02:51 68.5 °F /  20.3 °C 55.0 °F /  12.8 °C 29.92 in /  1013.1 hPa NNE 4.3 mph /  6.9 km/h 9.2 mph /  14.8 km/h 62 % 0.00 in /  0 mm
02:56 68.4 °F /  20.2 °C 55.3 °F /  12.9 °C 29.92 in /  1013.1 hPa NNE 6.7 mph /  10.8 km/h 9.0 mph /  14.5 km/h 63 % 0.00 in /  0 mm
03:01 68.3 °F /  20.2 °C 54.8 °F /  12.7 °C 29.92 in /  1013.1 hPa NE 6.2 mph /  10 km/h 10.4 mph /  16.7 km/h 62 % 0.00 in /  0 mm
03:07 68.2 °F /  20.1 °C 55.1 °F /  12.8 °C 29.92 in /  1013.1 hPa NNE 6.8 mph /  10.9 km/h 11.5 mph /  18.5 km/h 63 % 0.00 in /  0 mm
03:12 68.1 °F /  20.1 °C 54.6 °F /  12.6 °C 29.92 in /  1013.1 hPa North 5.6 mph /  9 km/h 9.2 mph /  14.8 km/h 62 % 0.00 in /  0 mm
03:17 68.1 °F /  20.1 °C 54.6 °F /  12.6 °C 29.92 in /  1013.1 hPa NE 8.1 mph /  13 km/h 12.7 mph /  20.4 km/h 62 % 0.00 in /  0 mm
03:22 68.0 °F /  20 °C 54.5 °F /  12.5 °C 29.92 in /  1013.1 hPa North 8.7 mph /  14 km/h 11.5 mph /  18.5 km/h 62 % 0.00 in /  0 mm
03:27 67.9 °F /  19.9 °C 54.0 °F /  12.2 °C 29.92 in /  1013.1 hPa NNE 8.9 mph /  14.3 km/h 13.8 mph /  22.2 km/h 61 % 0.00 in /  0 mm
03:32 67.9 °F /  19.9 °C 54.8 °F /  12.7 °C 29.91 in /  1012.8 hPa NNE 4.1 mph /  6.6 km/h 6.9 mph /  11.1 km/h 63 % 0.00 in /  0 mm
03:35 67.9 °F /  19.9 °C 54.8 °F /  12.7 °C 29.91 in /  1012.8 hPa NNW 7.1 mph /  11.4 km/h 14.0 mph /  22.5 km/h 63 % 0.00 in /  0 mm
03:40 67.8 °F /  19.9 °C 53.9 °F /  12.2 °C 29.91 in /  1012.8 hPa North 4.9 mph /  7.9 km/h 11.5 mph /  18.5 km/h 61 % 0.00 in /  0 mm
03:45 67.8 °F /  19.9 °C 54.3 °F /  12.4 °C 29.91 in /  1012.8 hPa North 9.0 mph /  14.5 km/h 15.0 mph /  24.1 km/h 62 % 0.00 in /  0 mm
03:55 67.6 °F /  19.8 °C 54.1 °F /  12.3 °C 29.91 in /  1012.8 hPa NE 6.2 mph /  10 km/h 9.2 mph /  14.8 km/h 62 % 0.00 in /  0 mm
04:00 67.6 °F /  19.8 °C 54.1 °F /  12.3 °C 29.91 in /  1012.8 hPa NNW 7.7 mph /  12.4 km/h 13.8 mph /  22.2 km/h 62 % 0.00 in /  0 mm
04:05 67.5 °F /  19.7 °C 54.5 °F /  12.5 °C 29.91 in /  1012.8 hPa North 7.6 mph /  12.2 km/h 10.4 mph /  16.7 km/h 63 % 0.00 in /  0 mm
04:10 67.5 °F /  19.7 °C 54.9 °F /  12.7 °C 29.91 in /  1012.8 hPa NNE 5.3 mph /  8.5 km/h 9.0 mph /  14.5 km/h 64 % 0.00 in /  0 mm
04:15 67.4 °F /  19.7 °C 54.8 °F /  12.7 °C 29.91 in /  1012.8 hPa NNE 7.3 mph /  11.7 km/h 13.0 mph /  20.9 km/h 64 % 0.00 in /  0 mm
04:20 67.4 °F /  19.7 °C 54.8 °F /  12.7 °C 29.91 in /  1012.8 hPa NNE 5.6 mph /  9 km/h 11.5 mph /  18.5 km/h 64 % 0.00 in /  0 mm
04:25 67.4 °F /  19.7 °C 54.8 °F /  12.7 °C 29.91 in /  1012.8 hPa NNW 5.4 mph /  8.7 km/h 6.9 mph /  11.1 km/h 64 % 0.00 in /  0 mm
04:30 67.2 °F /  19.6 °C 55.5 °F /  13.1 °C 29.91 in /  1012.8 hPa North 3.4 mph /  5.5 km/h 11.5 mph /  18.5 km/h 66 % 0.00 in /  0 mm
04:35 67.1 °F /  19.5 °C 55.4 °F /  13 °C 29.91 in /  1012.8 hPa North 4.6 mph /  7.4 km/h 9.2 mph /  14.8 km/h 66 % 0.00 in /  0 mm
04:40 66.9 °F /  19.4 °C 54.7 °F /  12.6 °C 29.91 in /  1012.8 hPa NNE 7.1 mph /  11.4 km/h 11.5 mph /  18.5 km/h 65 % 0.00 in /  0 mm
04:45 66.8 °F /  19.3 °C 54.2 °F /  12.3 °C 29.92 in /  1013.1 hPa NE 7.7 mph /  12.4 km/h 10.4 mph /  16.7 km/h 64 % 0.00 in /  0 mm
04:50 66.8 °F /  19.3 °C 54.7 °F /  12.6 °C 29.91 in /  1012.8 hPa NNE 5.9 mph /  9.5 km/h 8.1 mph /  13 km/h 65 % 0.00 in /  0 mm
04:55 66.7 °F /  19.3 °C 54.6 °F /  12.6 °C 29.91 in /  1012.8 hPa NNW 8.5 mph /  13.7 km/h 11.5 mph /  18.5 km/h 65 % 0.00 in /  0 mm
05:01 66.7 °F /  19.3 °C 54.1 °F /  12.3 °C 29.92 in /  1013.1 hPa NNE 7.2 mph /  11.6 km/h 12.7 mph /  20.4 km/h 64 % 0.00 in /  0 mm
05:06 66.7 °F /  19.3 °C 54.6 °F /  12.6 °C 29.92 in /  1013.1 hPa NNE 7.0 mph /  11.3 km/h 13.0 mph /  20.9 km/h 65 % 0.00 in /  0 mm
05:11 66.7 °F /  19.3 °C 54.6 °F /  12.6 °C 29.92 in /  1013.1 hPa NNE 6.0 mph /  9.7 km/h 13.0 mph /  20.9 km/h 65 % 0.00 in /  0 mm
05:16 66.7 °F /  19.3 °C 54.6 °F /  12.6 °C 29.92 in /  1013.1 hPa NNE 6.0 mph /  9.7 km/h 14.0 mph /  22.5 km/h 65 % 0.00 in /  0 mm
05:21 66.7 °F /  19.3 °C 54.6 °F /  12.6 °C 29.92 in /  1013.1 hPa North 7.0 mph /  11.3 km/h 12.0 mph /  19.3 km/h 65 % 0.00 in /  0 mm
05:26 66.7 °F /  19.3 °C 54.6 °F /  12.6 °C 29.92 in /  1013.1 hPa North 5.0 mph /  8 km/h 12.0 mph /  19.3 km/h 65 % 0.00 in /  0 mm
05:31 66.7 °F /  19.3 °C 54.6 °F /  12.6 °C 29.92 in /  1013.1 hPa North 5.2 mph /  8.4 km/h 10.4 mph /  16.7 km/h 65 % 0.00 in /  0 mm
05:36 66.6 °F /  19.2 °C 54.5 °F /  12.5 °C 29.92 in /  1013.1 hPa North 3.0 mph /  4.8 km/h 9.0 mph /  14.5 km/h 65 % 0.00 in /  0 mm
05:41 66.6 °F /  19.2 °C 54.9 °F /  12.7 °C 29.92 in /  1013.1 hPa North 5.0 mph /  8 km/h 12.0 mph /  19.3 km/h 66 % 0.00 in /  0 mm
05:46 66.5 °F /  19.2 °C 54.4 °F /  12.4 °C 29.92 in /  1013.1 hPa North 6.0 mph /  9.7 km/h 12.0 mph /  19.3 km/h 65 % 0.00 in /  0 mm
05:51 66.5 °F /  19.2 °C 54.4 °F /  12.4 °C 29.92 in /  1013.1 hPa North 6.0 mph /  9.7 km/h 12.0 mph /  19.3 km/h 65 % 0.00 in /  0 mm
05:56 66.5 °F /  19.2 °C 54.3 °F /  12.4 °C 29.92 in /  1013.1 hPa North 7.0 mph /  11.3 km/h 12.0 mph /  19.3 km/h 65 % 0.00 in /  0 mm
06:01 66.4 °F /  19.1 °C 53.8 °F /  12.1 °C 29.92 in /  1013.1 hPa NNE 6.8 mph /  10.9 km/h 10.4 mph /  16.7 km/h 64 % 0.00 in /  0 mm
06:06 66.4 °F /  19.1 °C 54.3 °F /  12.4 °C 29.92 in /  1013.1 hPa North 5.0 mph /  8 km/h 12.0 mph /  19.3 km/h 65 % 0.00 in /  0 mm
06:11 66.3 °F /  19.1 °C 54.2 °F /  12.3 °C 29.92 in /  1013.1 hPa North 6.0 mph /  9.7 km/h 10.0 mph /  16.1 km/h 65 % 0.00 in /  0 mm
06:16 66.3 °F /  19.1 °C 54.2 °F /  12.3 °C 29.92 in /  1013.1 hPa North 6.0 mph /  9.7 km/h 10.0 mph /  16.1 km/h 65 % 0.00 in /  0 mm
06:21 66.2 °F /  19 °C 54.1 °F /  12.3 °C 29.92 in /  1013.1 hPa North 6.0 mph /  9.7 km/h 8.0 mph /  12.9 km/h 65 % 0.00 in /  0 mm
06:26 66.1 °F /  18.9 °C 54.0 °F /  12.2 °C 29.93 in /  1013.4 hPa NNE 5.0 mph /  8 km/h 9.2 mph /  14.8 km/h 65 % 0.00 in /  0 mm
06:31 66.1 °F /  18.9 °C 54.0 °F /  12.2 °C 29.93 in /  1013.4 hPa NNE 6.4 mph /  10.3 km/h 10.4 mph /  16.7 km/h 65 % 0.00 in /  0 mm
06:36 66.1 °F /  18.9 °C 54.0 °F /  12.2 °C 29.93 in /  1013.4 hPa North 4.2 mph /  6.8 km/h 8.1 mph /  13 km/h 65 % 0.00 in /  0 mm
06:41 66.0 °F /  18.9 °C 53.9 °F /  12.2 °C 29.93 in /  1013.4 hPa North 7.0 mph /  11.3 km/h 11.5 mph /  18.5 km/h 65 % 0.00 in /  0 mm
06:47 66.0 °F /  18.9 °C 54.3 °F /  12.4 °C 29.93 in /  1013.4 hPa North 4.5 mph /  7.2 km/h 11.5 mph /  18.5 km/h 66 % 0.00 in /  0 mm
06:52 65.9 °F /  18.8 °C 53.8 °F /  12.1 °C 29.93 in /  1013.4 hPa NNE 5.5 mph /  8.9 km/h 10.4 mph /  16.7 km/h 65 % 0.00 in /  0 mm
06:57 65.9 °F /  18.8 °C 53.8 °F /  12.1 °C 29.93 in /  1013.4 hPa North 7.5 mph /  12.1 km/h 12.0 mph /  19.3 km/h 65 % 0.00 in /  0 mm
07:02 65.9 °F /  18.8 °C 53.8 °F /  12.1 °C 29.93 in /  1013.4 hPa NNW 4.9 mph /  7.9 km/h 9.2 mph /  14.8 km/h 65 % 0.00 in /  0 mm
07:07 65.9 °F /  18.8 °C 53.4 °F /  11.9 °C 29.94 in /  1013.8 hPa North 7.5 mph /  12.1 km/h 11.5 mph /  18.5 km/h 64 % 0.00 in /  0 mm
07:12 65.9 °F /  18.8 °C 53.8 °F /  12.1 °C 29.94 in /  1013.8 hPa NNE 7.7 mph /  12.4 km/h 12.7 mph /  20.4 km/h 65 % 0.00 in /  0 mm
07:17 65.9 °F /  18.8 °C 53.4 °F /  11.9 °C 29.94 in /  1013.8 hPa NNE 7.4 mph /  11.9 km/h 10.4 mph /  16.7 km/h 64 % 0.00 in /  0 mm
07:22 65.9 °F /  18.8 °C 53.8 °F /  12.1 °C 29.94 in /  1013.8 hPa NNE 8.5 mph /  13.7 km/h 11.5 mph /  18.5 km/h 65 % 0.00 in /  0 mm
07:27 65.9 °F /  18.8 °C 53.8 °F /  12.1 °C 29.93 in /  1013.4 hPa North 4.1 mph /  6.6 km/h 8.1 mph /  13 km/h 65 % 0.00 in /  0 mm
07:32 66.0 °F /  18.9 °C 53.9 °F /  12.2 °C 29.93 in /  1013.4 hPa NE 8.0 mph /  12.9 km/h 13.8 mph /  22.2 km/h 65 % 0.00 in /  0 mm
07:37 66.0 °F /  18.9 °C 54.3 °F /  12.4 °C 29.93 in /  1013.4 hPa NNW 5.2 mph /  8.4 km/h 9.2 mph /  14.8 km/h 66 % 0.00 in /  0 mm
07:42 65.9 °F /  18.8 °C 53.4 °F /  11.9 °C 29.93 in /  1013.4 hPa NNW 8.3 mph /  13.4 km/h 12.7 mph /  20.4 km/h 64 % 0.00 in /  0 mm
07:47 65.9 °F /  18.8 °C 54.2 °F /  12.3 °C 29.93 in /  1013.4 hPa NNE 6.3 mph /  10.1 km/h 8.1 mph /  13 km/h 66 % 0.00 in /  0 mm
07:52 65.8 °F /  18.8 °C 53.3 °F /  11.8 °C 29.93 in /  1013.4 hPa North 5.2 mph /  8.4 km/h 10.4 mph /  16.7 km/h 64 % 0.00 in /  0 mm
07:57 65.8 °F /  18.8 °C 53.7 °F /  12.1 °C 29.93 in /  1013.4 hPa North 4.3 mph /  6.9 km/h 8.1 mph /  13 km/h 65 % 0.00 in /  0 mm
08:02 65.7 °F /  18.7 °C 54.0 °F /  12.2 °C 29.93 in /  1013.4 hPa North 4.9 mph /  7.9 km/h 10.4 mph /  16.7 km/h 66 % 0.00 in /  0 mm
08:07 65.7 °F /  18.7 °C 53.6 °F /  12 °C 29.93 in /  1013.4 hPa North 4.3 mph /  6.9 km/h 9.2 mph /  14.8 km/h 65 % 0.00 in /  0 mm
08:13 65.8 °F /  18.8 °C 53.7 °F /  12.1 °C 29.93 in /  1013.4 hPa North 4.8 mph /  7.7 km/h 8.1 mph /  13 km/h 65 % 0.00 in /  0 mm
08:18 65.8 °F /  18.8 °C 54.1 °F /  12.3 °C 29.94 in /  1013.8 hPa NNE 3.5 mph /  5.6 km/h 9.2 mph /  14.8 km/h 66 % 0.00 in /  0 mm
08:23 65.9 °F /  18.8 °C 54.6 °F /  12.6 °C 29.93 in /  1013.4 hPa East 4.9 mph /  7.9 km/h 7.0 mph /  11.3 km/h 67 % 0.00 in /  0 mm
08:28 66.0 °F /  18.9 °C 54.7 °F /  12.6 °C 29.93 in /  1013.4 hPa North 5.0 mph /  8 km/h 9.2 mph /  14.8 km/h 67 % 0.00 in /  0 mm
08:33 66.2 °F /  19 °C 54.5 °F /  12.5 °C 29.93 in /  1013.4 hPa North 6.6 mph /  10.6 km/h 11.5 mph /  18.5 km/h 66 % 0.00 in /  0 mm
08:38 66.4 °F /  19.1 °C 54.7 °F /  12.6 °C 29.93 in /  1013.4 hPa North 6.7 mph /  10.8 km/h 10.4 mph /  16.7 km/h 66 % 0.00 in /  0 mm
08:43 66.6 °F /  19.2 °C 54.9 °F /  12.7 °C 29.93 in /  1013.4 hPa North 3.9 mph /  6.3 km/h 8.1 mph /  13 km/h 66 % 0.00 in /  0 mm
08:48 66.7 °F /  19.3 °C 55.0 °F /  12.8 °C 29.93 in /  1013.4 hPa North 5.3 mph /  8.5 km/h 9.2 mph /  14.8 km/h 66 % 0.00 in /  0 mm
08:53 66.9 °F /  19.4 °C 54.7 °F /  12.6 °C 29.94 in /  1013.8 hPa NNE 3.9 mph /  6.3 km/h 7.0 mph /  11.3 km/h 65 % 0.00 in /  0 mm
08:58 67.0 °F /  19.4 °C 55.3 °F /  12.9 °C 29.93 in /  1013.4 hPa North 3.6 mph /  5.8 km/h 5.8 mph /  9.3 km/h 66 % 0.00 in /  0 mm
09:03 67.0 °F /  19.4 °C 54.8 °F /  12.7 °C 29.93 in /  1013.4 hPa NNE 6.9 mph /  11.1 km/h 10.4 mph /  16.7 km/h 65 % 0.00 in /  0 mm
09:08 67.1 °F /  19.5 °C 54.9 °F /  12.7 °C 29.93 in /  1013.4 hPa North 8.8 mph /  14.2 km/h 12.7 mph /  20.4 km/h 65 % 0.00 in /  0 mm
09:13 67.1 °F /  19.5 °C 54.9 °F /  12.7 °C 29.93 in /  1013.4 hPa NE 5.2 mph /  8.4 km/h 9.2 mph /  14.8 km/h 65 % 0.00 in /  0 mm
09:18 67.2 °F /  19.6 °C 55.5 °F /  13.1 °C 29.93 in /  1013.4 hPa NNW 5.7 mph /  9.2 km/h 9.2 mph /  14.8 km/h 66 % 0.00 in /  0 mm
09:23 67.4 °F /  19.7 °C 55.6 °F /  13.1 °C 29.93 in /  1013.4 hPa NNE 7.8 mph /  12.6 km/h 12.0 mph /  19.3 km/h 66 % 0.00 in /  0 mm
09:28 67.6 °F /  19.8 °C 55.4 °F /  13 °C 29.93 in /  1013.4 hPa North 5.8 mph /  9.3 km/h 8.1 mph /  13 km/h 65 % 0.00 in /  0 mm
09:33 67.8 °F /  19.9 °C 56.0 °F /  13.3 °C 29.93 in /  1013.4 hPa NNE 4.8 mph /  7.7 km/h 9.2 mph /  14.8 km/h 66 % 0.00 in /  0 mm
09:38 68.1 °F /  20.1 °C 55.5 °F /  13.1 °C 29.93 in /  1013.4 hPa NNW 5.5 mph /  8.9 km/h 9.2 mph /  14.8 km/h 64 % 0.00 in /  0 mm
09:43 68.3 °F /  20.2 °C 55.6 °F /  13.1 °C 29.93 in /  1013.4 hPa NE 7.0 mph /  11.3 km/h 10.4 mph /  16.7 km/h 64 % 0.00 in /  0 mm
09:48 68.5 °F /  20.3 °C 55.8 °F /  13.2 °C 29.93 in /  1013.4 hPa North 6.0 mph /  9.7 km/h 10.4 mph /  16.7 km/h 64 % 0.00 in /  0 mm
09:53 68.7 °F /  20.4 °C 56.0 °F /  13.3 °C 29.93 in /  1013.4 hPa North 7.1 mph /  11.4 km/h 9.2 mph /  14.8 km/h 64 % 0.00 in /  0 mm
09:58 68.9 °F /  20.5 °C 55.8 °F /  13.2 °C 29.93 in /  1013.4 hPa NE 5.7 mph /  9.2 km/h 11.5 mph /  18.5 km/h 63 % 0.00 in /  0 mm
10:04 69.1 °F /  20.6 °C 56.0 °F /  13.3 °C 29.93 in /  1013.4 hPa NNW 6.4 mph /  10.3 km/h 8.1 mph /  13 km/h 63 % 0.00 in /  0 mm
10:09 69.2 °F /  20.7 °C 55.6 °F /  13.1 °C 29.93 in /  1013.4 hPa NNE 5.6 mph /  9 km/h 12.7 mph /  20.4 km/h 62 % 0.00 in /  0 mm
10:14 69.3 °F /  20.7 °C 56.2 °F /  13.4 °C 29.93 in /  1013.4 hPa NNE 3.4 mph /  5.5 km/h 11.5 mph /  18.5 km/h 63 % 0.00 in /  0 mm
10:19 69.4 °F /  20.8 °C 57.1 °F /  13.9 °C 29.93 in /  1013.4 hPa North 7.3 mph /  11.7 km/h 10.4 mph /  16.7 km/h 65 % 0.00 in /  0 mm
10:24 69.6 °F /  20.9 °C 56.9 °F /  13.8 °C 29.93 in /  1013.4 hPa North 5.6 mph /  9 km/h 9.2 mph /  14.8 km/h 64 % 0.00 in /  0 mm
10:29 69.9 °F /  21.1 °C 56.7 °F /  13.7 °C 29.93 in /  1013.4 hPa NE 6.6 mph /  10.6 km/h 11.5 mph /  18.5 km/h 63 % 0.00 in /  0 mm
10:34 70.2 °F /  21.2 °C 57.4 °F /  14.1 °C 29.93 in /  1013.4 hPa North 5.5 mph /  8.9 km/h 12.0 mph /  19.3 km/h 64 % 0.00 in /  0 mm
10:39 70.7 °F /  21.5 °C 57.5 °F /  14.2 °C 29.92 in /  1013.1 hPa North 7.2 mph /  11.6 km/h 13.8 mph /  22.2 km/h 63 % 0.00 in /  0 mm
10:44 71.2 °F /  21.8 °C 57.5 °F /  14.2 °C 29.92 in /  1013.1 hPa NNE 7.8 mph /  12.6 km/h 11.5 mph /  18.5 km/h 62 % 0.00 in /  0 mm
10:49 71.4 °F /  21.9 °C 57.7 °F /  14.3 °C 29.92 in /  1013.1 hPa North 6.7 mph /  10.8 km/h 10.4 mph /  16.7 km/h 62 % 0.00 in /  0 mm
10:54 71.6 °F /  22 °C 57.4 °F /  14.1 °C 29.92 in /  1013.1 hPa North 4.6 mph /  7.4 km/h 8.1 mph /  13 km/h 61 % 0.00 in /  0 mm
10:59 71.8 °F /  22.1 °C 57.6 °F /  14.2 °C 29.92 in /  1013.1 hPa North 5.4 mph /  8.7 km/h 9.2 mph /  14.8 km/h 61 % 0.00 in /  0 mm
11:04 72.1 °F /  22.3 °C 57.9 °F /  14.4 °C 29.92 in /  1013.1 hPa North 6.6 mph /  10.6 km/h 11.5 mph /  18.5 km/h 61 % 0.00 in /  0 mm
11:09 72.7 °F /  22.6 °C 59.4 °F /  15.2 °C 29.92 in /  1013.1 hPa North 4.4 mph /  7.1 km/h 9.2 mph /  14.8 km/h 63 % 0.00 in /  0 mm
11:10 72.7 °F /  22.6 °C 59.4 °F /  15.2 °C 29.92 in /  1013.1 hPa NE 5.7 mph /  9.2 km/h 12.0 mph /  19.3 km/h 63 % 0.00 in /  0 mm
11:15 73.2 °F /  22.9 °C 58.9 °F /  14.9 °C 29.92 in /  1013.1 hPa NNE 6.5 mph /  10.5 km/h 9.2 mph /  14.8 km/h 61 % 0.00 in /  0 mm
11:20 73.7 °F /  23.2 °C 59.4 °F /  15.2 °C 29.92 in /  1013.1 hPa NNW 4.3 mph /  6.9 km/h 10.4 mph /  16.7 km/h 61 % 0.00 in /  0 mm
11:25 74.1 °F /  23.4 °C 59.3 °F /  15.2 °C 29.92 in /  1013.1 hPa NNE 5.6 mph /  9 km/h 8.1 mph /  13 km/h 60 % 0.00 in /  0 mm
11:30 74.4 °F /  23.6 °C 60.5 °F /  15.8 °C 29.91 in /  1012.8 hPa NNE 4.5 mph /  7.2 km/h 5.8 mph /  9.3 km/h 62 % 0.00 in /  0 mm
11:35 75.0 °F /  23.9 °C 60.6 °F /  15.9 °C 29.91 in /  1012.8 hPa North 5.7 mph /  9.2 km/h 8.1 mph /  13 km/h 61 % 0.00 in /  0 mm
11:40 75.6 °F /  24.2 °C 62.1 °F /  16.7 °C 29.91 in /  1012.8 hPa North 5.0 mph /  8 km/h 8.1 mph /  13 km/h 63 % 0.00 in /  0 mm
11:45 76.6 °F /  24.8 °C 63.1 °F /  17.3 °C 29.92 in /  1013.1 hPa North 2.5 mph /  4 km/h 7.0 mph /  11.3 km/h 63 % 0.00 in /  0 mm
11:50 77.3 °F /  25.2 °C 62.8 °F /  17.1 °C 29.92 in /  1013.1 hPa NNW 4.4 mph /  7.1 km/h 9.2 mph /  14.8 km/h 61 % 0.00 in /  0 mm
11:55 78.1 °F /  25.6 °C 62.1 °F /  16.7 °C 29.92 in /  1013.1 hPa NNW 3.5 mph /  5.6 km/h 7.0 mph /  11.3 km/h 58 % 0.00 in /  0 mm
12:00 78.7 °F /  25.9 °C 62.2 °F /  16.8 °C 29.92 in /  1013.1 hPa NNE 3.2 mph /  5.1 km/h 11.5 mph /  18.5 km/h 57 % 0.00 in /  0 mm
12:05 79.3 °F /  26.3 °C 62.2 °F /  16.8 °C 29.91 in /  1012.8 hPa NNE 2.9 mph /  4.7 km/h 5.8 mph /  9.3 km/h 56 % 0.00 in /  0 mm
12:10 79.7 °F /  26.5 °C 63.1 °F /  17.3 °C 29.91 in /  1012.8 hPa North 5.0 mph /  8 km/h 10.0 mph /  16.1 km/h 57 % 0.00 in /  0 mm
12:15 80.2 °F /  26.8 °C 63.1 °F /  17.3 °C 29.91 in /  1012.8 hPa NW 5.2 mph /  8.4 km/h 5.8 mph /  9.3 km/h 56 % 0.00 in /  0 mm
12:20 80.7 °F /  27.1 °C 64.1 °F /  17.8 °C 29.91 in /  1012.8 hPa NNE 3.0 mph /  4.8 km/h 6.9 mph /  11.1 km/h 57 % 0.00 in /  0 mm
12:25 81.2 °F /  27.3 °C 64.0 °F /  17.8 °C 29.91 in /  1012.8 hPa North 4.8 mph /  7.7 km/h 6.9 mph /  11.1 km/h 56 % 0.00 in /  0 mm
12:30 81.8 °F /  27.7 °C 65.1 °F /  18.4 °C 29.91 in /  1012.8 hPa NNW 2.0 mph /  3.2 km/h 5.8 mph /  9.3 km/h 57 % 0.00 in /  0 mm
12:35 82.4 °F /  28 °C 64.1 °F /  17.8 °C 29.91 in /  1012.8 hPa NNE 2.5 mph /  4 km/h 4.6 mph /  7.4 km/h 54 % 0.00 in /  0 mm
12:40 82.8 °F /  28.2 °C 63.9 °F /  17.7 °C 29.90 in /  1012.4 hPa NNE 3.1 mph /  5 km/h 4.6 mph /  7.4 km/h 53 % 0.00 in /  0 mm
12:45 82.5 °F /  28.1 °C 63.1 °F /  17.3 °C 29.91 in /  1012.8 hPa NNE 2.1 mph /  3.4 km/h 8.1 mph /  13 km/h 52 % 0.00 in /  0 mm
12:50 82.4 °F /  28 °C 62.5 °F /  16.9 °C 29.90 in /  1012.4 hPa NW 3.4 mph /  5.5 km/h 6.9 mph /  11.1 km/h 51 % 0.00 in /  0 mm
12:55 82.3 °F /  27.9 °C 64.0 °F /  17.8 °C 29.90 in /  1012.4 hPa North 1.7 mph /  2.7 km/h 3.5 mph /  5.6 km/h 54 % 0.00 in /  0 mm
13:00 82.6 °F /  28.1 °C 65.8 °F /  18.8 °C 29.89 in /  1012.1 hPa NNE 3.1 mph /  5 km/h 5.0 mph /  8 km/h 57 % 0.00 in /  0 mm
13:05 82.8 °F /  28.2 °C 65.0 °F /  18.3 °C 29.89 in /  1012.1 hPa NNW 2.9 mph /  4.7 km/h 4.6 mph /  7.4 km/h 55 % 0.00 in /  0 mm
13:10 83.2 °F /  28.4 °C 64.8 °F /  18.2 °C 29.89 in /  1012.1 hPa NW 2.2 mph /  3.5 km/h 3.0 mph /  4.8 km/h 54 % 0.00 in /  0 mm
13:15 83.3 °F /  28.5 °C 65.4 °F /  18.6 °C 29.89 in /  1012.1 hPa NNE 2.8 mph /  4.5 km/h 8.1 mph /  13 km/h 55 % 0.00 in /  0 mm
13:21 83.4 °F /  28.6 °C 65.5 °F /  18.6 °C 29.89 in /  1012.1 hPa NNE 5.0 mph /  8 km/h 8.0 mph /  12.9 km/h 55 % 0.00 in /  0 mm
13:26 83.6 °F /  28.7 °C 66.8 °F /  19.3 °C 29.89 in /  1012.1 hPa NNE 2.0 mph /  3.2 km/h 8.0 mph /  12.9 km/h 57 % 0.00 in /  0 mm
13:31 83.7 °F /  28.7 °C 65.8 °F /  18.8 °C 29.89 in /  1012.1 hPa North 3.0 mph /  4.8 km/h 9.0 mph /  14.5 km/h 55 % 0.00 in /  0 mm
13:36 83.6 °F /  28.7 °C 66.2 °F /  19 °C 29.88 in /  1011.7 hPa NNE 3.0 mph /  4.8 km/h 7.0 mph /  11.3 km/h 56 % 0.00 in /  0 mm
13:41 83.7 °F /  28.7 °C 67.8 °F /  19.9 °C 29.88 in /  1011.7 hPa NNE 5.0 mph /  8 km/h 8.0 mph /  12.9 km/h 59 % 0.00 in /  0 mm
13:46 84.1 °F /  28.9 °C 68.2 °F /  20.1 °C 29.88 in /  1011.7 hPa North 2.0 mph /  3.2 km/h 9.0 mph /  14.5 km/h 59 % 0.00 in /  0 mm
13:51 84.2 °F /  29 °C 67.3 °F /  19.6 °C 29.88 in /  1011.7 hPa North 3.0 mph /  4.8 km/h 9.0 mph /  14.5 km/h 57 % 0.00 in /  0 mm
13:56 84.5 °F /  29.2 °C 68.1 °F /  20.1 °C 29.88 in /  1011.7 hPa NNW 4.3 mph /  6.9 km/h 6.9 mph /  11.1 km/h 58 % 0.00 in /  0 mm
14:01 84.6 °F /  29.2 °C 67.2 °F /  19.6 °C 29.88 in /  1011.7 hPa NNE 5.4 mph /  8.7 km/h 9.2 mph /  14.8 km/h 56 % 0.00 in /  0 mm
14:06 84.2 °F /  29 °C 65.8 °F /  18.8 °C 29.88 in /  1011.7 hPa North 3.0 mph /  4.8 km/h 9.0 mph /  14.5 km/h 54 % 0.00 in /  0 mm
14:11 84.1 °F /  28.9 °C 66.7 °F /  19.3 °C 29.88 in /  1011.7 hPa North 1.0 mph /  1.6 km/h 8.0 mph /  12.9 km/h 56 % 0.00 in /  0 mm
14:16 83.8 °F /  28.8 °C 66.4 °F /  19.1 °C 29.88 in /  1011.7 hPa North 3.0 mph /  4.8 km/h 9.0 mph /  14.5 km/h 56 % 0.00 in /  0 mm
14:21 83.3 °F /  28.5 °C 67.5 °F /  19.7 °C 29.88 in /  1011.7 hPa NNE 5.1 mph /  8.2 km/h 11.0 mph /  17.7 km/h 59 % 0.00 in /  0 mm
14:26 82.7 °F /  28.2 °C 67.4 °F /  19.7 °C 29.87 in /  1011.4 hPa NNE 2.0 mph /  3.2 km/h 8.0 mph /  12.9 km/h 60 % 0.00 in /  0 mm
14:31 82.6 °F /  28.1 °C 67.3 °F /  19.6 °C 29.87 in /  1011.4 hPa North 6.0 mph /  9.7 km/h 9.0 mph /  14.5 km/h 60 % 0.00 in /  0 mm
14:36 82.6 °F /  28.1 °C 66.8 °F /  19.3 °C 29.87 in /  1011.4 hPa NE 3.9 mph /  6.3 km/h 10.0 mph /  16.1 km/h 59 % 0.00 in /  0 mm
14:41 82.5 °F /  28.1 °C 67.7 °F /  19.8 °C 29.87 in /  1011.4 hPa North 3.3 mph /  5.3 km/h 6.9 mph /  11.1 km/h 61 % 0.00 in /  0 mm
14:46 82.5 °F /  28.1 °C 67.2 °F /  19.6 °C 29.87 in /  1011.4 hPa North 4.8 mph /  7.7 km/h 8.1 mph /  13 km/h 60 % 0.00 in /  0 mm
14:51 82.6 °F /  28.1 °C 67.3 °F /  19.6 °C 29.87 in /  1011.4 hPa NW 2.0 mph /  3.2 km/h 4.0 mph /  6.4 km/h 60 % 0.00 in /  0 mm
14:57 82.9 °F /  28.3 °C 67.6 °F /  19.8 °C 29.87 in /  1011.4 hPa NNW 3.1 mph /  5 km/h 5.0 mph /  8 km/h 60 % 0.00 in /  0 mm
15:02 83.0 °F /  28.3 °C 67.2 °F /  19.6 °C 29.86 in /  1011.1 hPa NNE 4.6 mph /  7.4 km/h 8.1 mph /  13 km/h 59 % 0.00 in /  0 mm
15:07 83.2 °F /  28.4 °C 66.9 °F /  19.4 °C 29.86 in /  1011.1 hPa NNW 4.9 mph /  7.9 km/h 8.1 mph /  13 km/h 58 % 0.00 in /  0 mm
15:12 83.2 °F /  28.4 °C 67.4 °F /  19.7 °C 29.86 in /  1011.1 hPa NE 4.9 mph /  7.9 km/h 8.1 mph /  13 km/h 59 % 0.00 in /  0 mm
15:17 83.1 °F /  28.4 °C 67.8 °F /  19.9 °C 29.86 in /  1011.1 hPa North 2.9 mph /  4.7 km/h 5.0 mph /  8 km/h 60 % 0.00 in /  0 mm
15:22 83.0 °F /  28.3 °C 67.7 °F /  19.8 °C 29.86 in /  1011.1 hPa NNE 4.4 mph /  7.1 km/h 8.1 mph /  13 km/h 60 % 0.00 in /  0 mm
15:27 82.7 °F /  28.2 °C 67.4 °F /  19.7 °C 29.86 in /  1011.1 hPa North 1.1 mph /  1.8 km/h 3.5 mph /  5.6 km/h 60 % 0.00 in /  0 mm
15:32 82.4 °F /  28 °C 68.1 °F /  20.1 °C 29.86 in /  1011.1 hPa NNE 2.5 mph /  4 km/h 3.5 mph /  5.6 km/h 62 % 0.00 in /  0 mm
15:37 82.1 °F /  27.8 °C 67.8 °F /  19.9 °C 29.86 in /  1011.1 hPa NE 3.6 mph /  5.8 km/h 5.8 mph /  9.3 km/h 62 % 0.00 in /  0 mm
15:42 81.7 °F /  27.6 °C 67.4 °F /  19.7 °C 29.86 in /  1011.1 hPa East 4.6 mph /  7.4 km/h 8.1 mph /  13 km/h 62 % 0.00 in /  0 mm
15:47 81.2 °F /  27.3 °C 67.9 °F /  19.9 °C 29.86 in /  1011.1 hPa NNE 3.2 mph /  5.1 km/h 5.8 mph /  9.3 km/h 64 % 0.00 in /  0 mm
15:52 80.8 °F /  27.1 °C 67.9 °F /  19.9 °C 29.86 in /  1011.1 hPa North 4.2 mph /  6.8 km/h 6.0 mph /  9.7 km/h 65 % 0.00 in /  0 mm
15:57 80.4 °F /  26.9 °C 68.0 °F /  20 °C 29.86 in /  1011.1 hPa NNE 5.7 mph /  9.2 km/h 9.2 mph /  14.8 km/h 66 % 0.00 in /  0 mm
16:02 79.9 °F /  26.6 °C 67.5 °F /  19.7 °C 29.85 in /  1010.7 hPa NNE 4.6 mph /  7.4 km/h 5.8 mph /  9.3 km/h 66 % 0.00 in /  0 mm
16:07 79.6 °F /  26.4 °C 67.2 °F /  19.6 °C 29.85 in /  1010.7 hPa North 4.7 mph /  7.6 km/h 6.9 mph /  11.1 km/h 66 % 0.00 in /  0 mm
16:12 79.3 °F /  26.3 °C 67.4 °F /  19.7 °C 29.85 in /  1010.7 hPa NE 2.1 mph /  3.4 km/h 3.5 mph /  5.6 km/h 67 % 0.00 in /  0 mm
16:17 79.2 °F /  26.2 °C 67.7 °F /  19.8 °C 29.85 in /  1010.7 hPa NNE 5.8 mph /  9.3 km/h 8.1 mph /  13 km/h 68 % 0.00 in /  0 mm
16:23 79.0 °F /  26.1 °C 67.5 °F /  19.7 °C 29.85 in /  1010.7 hPa NNE 4.1 mph /  6.6 km/h 9.2 mph /  14.8 km/h 68 % 0.00 in /  0 mm
16:28 78.7 °F /  25.9 °C 67.7 °F /  19.8 °C 29.85 in /  1010.7 hPa NNE 5.7 mph /  9.2 km/h 8.0 mph /  12.9 km/h 69 % 0.00 in /  0 mm
16:33 78.4 °F /  25.8 °C 67.0 °F /  19.4 °C 29.85 in /  1010.7 hPa NNE 7.6 mph /  12.2 km/h 11.5 mph /  18.5 km/h 68 % 0.00 in /  0 mm
16:38 78.3 °F /  25.7 °C 66.9 °F /  19.4 °C 29.85 in /  1010.7 hPa NNE 2.2 mph /  3.5 km/h 3.5 mph /  5.6 km/h 68 % 0.00 in /  0 mm
16:43 78.2 °F /  25.7 °C 67.2 °F /  19.6 °C 29.85 in /  1010.7 hPa NNE 1.5 mph /  2.4 km/h 3.5 mph /  5.6 km/h 69 % 0.00 in /  0 mm
16:48 78.0 °F /  25.6 °C 67.0 °F /  19.4 °C 29.85 in /  1010.7 hPa NNE 1.7 mph /  2.7 km/h 5.8 mph /  9.3 km/h 69 % 0.00 in /  0 mm
16:53 77.9 °F /  25.5 °C 67.3 °F /  19.6 °C 29.85 in /  1010.7 hPa North 3.6 mph /  5.8 km/h 6.9 mph /  11.1 km/h 70 % 0.00 in /  0 mm
16:58 77.7 °F /  25.4 °C 66.7 °F /  19.3 °C 29.85 in /  1010.7 hPa NNE 6.1 mph /  9.8 km/h 9.2 mph /  14.8 km/h 69 % 0.00 in /  0 mm
17:03 77.6 °F /  25.3 °C 67.0 °F /  19.4 °C 29.85 in /  1010.7 hPa NNW 4.0 mph /  6.4 km/h 8.1 mph /  13 km/h 70 % 0.00 in /  0 mm
17:08 77.6 °F /  25.3 °C 67.0 °F /  19.4 °C 29.85 in /  1010.7 hPa NNE 4.3 mph /  6.9 km/h 9.2 mph /  14.8 km/h 70 % 0.00 in /  0 mm
17:13 77.5 °F /  25.3 °C 66.9 °F /  19.4 °C 29.85 in /  1010.7 hPa NNE 3.5 mph /  5.6 km/h 3.5 mph /  5.6 km/h 70 % 0.00 in /  0 mm
17:18 77.5 °F /  25.3 °C 66.5 °F /  19.2 °C 29.85 in /  1010.7 hPa NE 2.4 mph /  3.9 km/h 3.5 mph /  5.6 km/h 69 % 0.00 in /  0 mm
17:23 77.4 °F /  25.2 °C 66.8 °F /  19.3 °C 29.85 in /  1010.7 hPa NE 3.5 mph /  5.6 km/h 3.5 mph /  5.6 km/h 70 % 0.00 in /  0 mm
17:28 77.4 °F /  25.2 °C 66.4 °F /  19.1 °C 29.85 in /  1010.7 hPa NE 4.1 mph /  6.6 km/h 10.4 mph /  16.7 km/h 69 % 0.00 in /  0 mm
17:33 77.3 °F /  25.2 °C 66.7 °F /  19.3 °C 29.85 in /  1010.7 hPa NNE 5.4 mph /  8.7 km/h 9.2 mph /  14.8 km/h 70 % 0.00 in /  0 mm
17:38 77.3 °F /  25.2 °C 66.7 °F /  19.3 °C 29.86 in /  1011.1 hPa NNE 3.6 mph /  5.8 km/h 3.6 mph /  5.8 km/h 70 % 0.00 in /  0 mm
17:43 77.1 °F /  25.1 °C 66.6 °F /  19.2 °C 29.86 in /  1011.1 hPa NNE 7.4 mph /  11.9 km/h 12.7 mph /  20.4 km/h 70 % 0.00 in /  0 mm
17:48 77.0 °F /  25 °C 66.0 °F /  18.9 °C 29.86 in /  1011.1 hPa NE 8.5 mph /  13.7 km/h 12.7 mph /  20.4 km/h 69 % 0.00 in /  0 mm
17:53 76.9 °F /  24.9 °C 66.0 °F /  18.9 °C 29.86 in /  1011.1 hPa NE 5.1 mph /  8.2 km/h 13.8 mph /  22.2 km/h 69 % 0.00 in /  0 mm
17:58 76.9 °F /  24.9 °C 66.0 °F /  18.9 °C 29.86 in /  1011.1 hPa North 4.7 mph /  7.6 km/h 9.0 mph /  14.5 km/h 69 % 0.00 in /  0 mm
18:03 76.8 °F /  24.9 °C 66.3 °F /  19.1 °C 29.86 in /  1011.1 hPa East 5.0 mph /  8 km/h 8.1 mph /  13 km/h 70 % 0.00 in /  0 mm
18:08 76.7 °F /  24.8 °C 66.2 °F /  19 °C 29.86 in /  1011.1 hPa ENE 2.7 mph /  4.3 km/h 3.5 mph /  5.6 km/h 70 % 0.00 in /  0 mm
18:13 76.6 °F /  24.8 °C 66.9 °F /  19.4 °C 29.86 in /  1011.1 hPa NE 1.8 mph /  2.9 km/h 4.6 mph /  7.4 km/h 72 % 0.00 in /  0 mm
18:18 76.5 °F /  24.7 °C 66.8 °F /  19.3 °C 29.86 in /  1011.1 hPa North 2.2 mph /  3.5 km/h 8.0 mph /  12.9 km/h 72 % 0.00 in /  0 mm
18:24 76.4 °F /  24.7 °C 66.7 °F /  19.3 °C 29.86 in /  1011.1 hPa NNE 2.9 mph /  4.7 km/h 5.8 mph /  9.3 km/h 72 % 0.00 in /  0 mm
18:29 76.2 °F /  24.6 °C 66.5 °F /  19.2 °C 29.86 in /  1011.1 hPa North 2.8 mph /  4.5 km/h 5.8 mph /  9.3 km/h 72 % 0.00 in /  0 mm
18:34 76.1 °F /  24.5 °C 66.8 °F /  19.3 °C 29.86 in /  1011.1 hPa ENE 2.6 mph /  4.2 km/h 3.5 mph /  5.6 km/h 73 % 0.00 in /  0 mm
18:39 76.0 °F /  24.4 °C 66.7 °F /  19.3 °C 29.86 in /  1011.1 hPa NE 1.8 mph /  2.9 km/h 4.6 mph /  7.4 km/h 73 % 0.00 in /  0 mm
18:44 75.9 °F /  24.4 °C 66.6 °F /  19.2 °C 29.86 in /  1011.1 hPa NNE 2.4 mph /  3.9 km/h 3.5 mph /  5.6 km/h 73 % 0.00 in /  0 mm
18:49 75.8 °F /  24.3 °C 66.9 °F /  19.4 °C 29.86 in /  1011.1 hPa North 2.3 mph /  3.7 km/h 3.5 mph /  5.6 km/h 74 % 0.00 in /  0 mm
18:54 75.6 °F /  24.2 °C 67.1 °F /  19.5 °C 29.86 in /  1011.1 hPa NNE 1.6 mph /  2.6 km/h 3.5 mph /  5.6 km/h 75 % 0.00 in /  0 mm
18:59 75.5 °F /  24.2 °C 67.4 °F /  19.7 °C 29.86 in /  1011.1 hPa NE 1.4 mph /  2.3 km/h 4.6 mph /  7.4 km/h 76 % 0.00 in /  0 mm
19:04 75.3 °F /  24.1 °C 67.2 °F /  19.6 °C 29.86 in /  1011.1 hPa ENE 2.0 mph /  3.2 km/h 3.5 mph /  5.6 km/h 76 % 0.00 in /  0 mm
19:06 75.3 °F /  24.1 °C 67.2 °F /  19.6 °C 29.86 in /  1011.1 hPa NNE 1.1 mph /  1.8 km/h 3.5 mph /  5.6 km/h 76 % 0.00 in /  0 mm
19:11 75.2 °F /  24 °C 67.5 °F /  19.7 °C 29.87 in /  1011.4 hPa Calm   4.0 mph /  6.4 km/h 77 % 0.00 in /  0 mm
19:16 75.1 °F /  23.9 °C 67.4 °F /  19.7 °C 29.87 in /  1011.4 hPa NE 1.0 mph /  1.6 km/h 4.0 mph /  6.4 km/h 77 % 0.00 in /  0 mm
19:21 74.9 °F /  23.8 °C 66.8 °F /  19.3 °C 29.87 in /  1011.4 hPa ENE 3.3 mph /  5.3 km/h 3.5 mph /  5.6 km/h 76 % 0.00 in /  0 mm
19:26 74.8 °F /  23.8 °C 66.3 °F /  19.1 °C 29.87 in /  1011.4 hPa NNE 3.0 mph /  4.8 km/h 8.0 mph /  12.9 km/h 75 % 0.00 in /  0 mm
19:31 74.7 °F /  23.7 °C 65.5 °F /  18.6 °C 29.88 in /  1011.7 hPa NE 5.0 mph /  8 km/h 15.0 mph /  24.1 km/h 73 % 0.00 in /  0 mm
19:35 74.7 °F /  23.7 °C 65.1 °F /  18.4 °C 29.88 in /  1011.7 hPa North 4.3 mph /  6.9 km/h 7.0 mph /  11.3 km/h 72 % 0.00 in /  0 mm
19:40 74.7 °F /  23.7 °C 65.1 °F /  18.4 °C 29.88 in /  1011.7 hPa NE 5.0 mph /  8 km/h 9.0 mph /  14.5 km/h 72 % 0.00 in /  0 mm
19:46 74.7 °F /  23.7 °C 65.1 °F /  18.4 °C 29.88 in /  1011.7 hPa NE 3.0 mph /  4.8 km/h 10.0 mph /  16.1 km/h 72 % 0.00 in /  0 mm
19:51 74.8 °F /  23.8 °C 66.3 °F /  19.1 °C 29.88 in /  1011.7 hPa ENE 3.0 mph /  4.8 km/h 8.0 mph /  12.9 km/h 75 % 0.00 in /  0 mm
19:55 74.7 °F /  23.7 °C 66.2 °F /  19 °C 29.88 in /  1011.7 hPa ENE 3.0 mph /  4.8 km/h 8.0 mph /  12.9 km/h 75 % 0.00 in /  0 mm
20:01 74.6 °F /  23.7 °C 66.1 °F /  18.9 °C 29.88 in /  1011.7 hPa NE 2.8 mph /  4.5 km/h 3.5 mph /  5.6 km/h 75 % 0.00 in /  0 mm
20:06 74.5 °F /  23.6 °C 66.1 °F /  18.9 °C 29.88 in /  1011.7 hPa ENE 2.4 mph /  3.9 km/h 3.5 mph /  5.6 km/h 75 % 0.00 in /  0 mm
20:11 74.4 °F /  23.6 °C 66.3 °F /  19.1 °C 29.88 in /  1011.7 hPa NE 1.0 mph /  1.6 km/h 5.0 mph /  8 km/h 76 % 0.00 in /  0 mm
20:16 74.3 °F /  23.5 °C 66.2 °F /  19 °C 29.88 in /  1011.7 hPa NE 1.0 mph /  1.6 km/h 5.0 mph /  8 km/h 76 % 0.00 in /  0 mm
20:20 74.1 °F /  23.4 °C 66.1 °F /  18.9 °C 29.88 in /  1011.7 hPa NNE 3.0 mph /  4.8 km/h 6.0 mph /  9.7 km/h 76 % 0.00 in /  0 mm
20:25 73.9 °F /  23.3 °C 65.9 °F /  18.8 °C 29.88 in /  1011.7 hPa NNE 3.0 mph /  4.8 km/h 7.0 mph /  11.3 km/h 76 % 0.00 in /  0 mm
20:30 73.7 °F /  23.2 °C 66.0 °F /  18.9 °C 29.88 in /  1011.7 hPa NNE 3.0 mph /  4.8 km/h 7.0 mph /  11.3 km/h 77 % 0.00 in /  0 mm
20:35 73.5 °F /  23.1 °C 65.8 °F /  18.8 °C 29.88 in /  1011.7 hPa NE 4.4 mph /  7.1 km/h 6.9 mph /  11.1 km/h 77 % 0.00 in /  0 mm
20:41 73.2 °F /  22.9 °C 64.4 °F /  18 °C 29.88 in /  1011.7 hPa NNE 6.0 mph /  9.7 km/h 12.0 mph /  19.3 km/h 74 % 0.00 in /  0 mm
20:46 73.0 °F /  22.8 °C 63.8 °F /  17.7 °C 29.89 in /  1012.1 hPa NNE 6.0 mph /  9.7 km/h 12.0 mph /  19.3 km/h 73 % 0.00 in /  0 mm
20:50 72.9 °F /  22.7 °C 63.3 °F /  17.4 °C 29.89 in /  1012.1 hPa NE 6.0 mph /  9.7 km/h 13.0 mph /  20.9 km/h 72 % 0.00 in /  0 mm
20:55 72.8 °F /  22.7 °C 63.6 °F /  17.6 °C 29.89 in /  1012.1 hPa East 4.6 mph /  7.4 km/h 6.9 mph /  11.1 km/h 73 % 0.00 in /  0 mm
21:00 72.8 °F /  22.7 °C 64.0 °F /  17.8 °C 29.89 in /  1012.1 hPa North 2.8 mph /  4.5 km/h 6.9 mph /  11.1 km/h 74 % 0.00 in /  0 mm
21:05 72.7 °F /  22.6 °C 63.9 °F /  17.7 °C 29.89 in /  1012.1 hPa NNE 8.0 mph /  12.9 km/h 14.0 mph /  22.5 km/h 74 % 0.00 in /  0 mm
21:11 72.6 °F /  22.6 °C 63.1 °F /  17.3 °C 29.90 in /  1012.4 hPa NNE 8.0 mph /  12.9 km/h 14.0 mph /  22.5 km/h 72 % 0.00 in /  0 mm
21:15 72.5 °F /  22.5 °C 62.2 °F /  16.8 °C 29.89 in /  1012.1 hPa NNE 7.0 mph /  11.3 km/h 14.0 mph /  22.5 km/h 70 % 0.00 in /  0 mm
21:21 72.4 °F /  22.4 °C 62.1 °F /  16.7 °C 29.89 in /  1012.1 hPa NNE 9.0 mph /  14.5 km/h 15.0 mph /  24.1 km/h 70 % 0.00 in /  0 mm
21:26 72.4 °F /  22.4 °C 61.7 °F /  16.5 °C 29.90 in /  1012.4 hPa NNE 6.0 mph /  9.7 km/h 13.0 mph /  20.9 km/h 69 % 0.00 in /  0 mm
21:30 72.4 °F /  22.4 °C 62.5 °F /  16.9 °C 29.90 in /  1012.4 hPa NE 6.0 mph /  9.7 km/h 9.0 mph /  14.5 km/h 71 % 0.00 in /  0 mm
21:35 72.3 °F /  22.4 °C 62.0 °F /  16.7 °C 29.89 in /  1012.1 hPa NNE 5.0 mph /  8 km/h 14.0 mph /  22.5 km/h 70 % 0.00 in /  0 mm
21:40 72.2 °F /  22.3 °C 62.3 °F /  16.8 °C 29.90 in /  1012.4 hPa NNE 7.0 mph /  11.3 km/h 12.0 mph /  19.3 km/h 71 % 0.00 in /  0 mm
21:45 72.2 °F /  22.3 °C 61.9 °F /  16.6 °C 29.90 in /  1012.4 hPa NNE 6.0 mph /  9.7 km/h 13.0 mph /  20.9 km/h 70 % 0.00 in /  0 mm
21:55 72.1 °F /  22.3 °C 62.6 °F /  17 °C 29.89 in /  1012.1 hPa NNE 6.0 mph /  9.7 km/h 12.0 mph /  19.3 km/h 72 % 0.00 in /  0 mm
22:01 72.0 °F /  22.2 °C 62.1 °F /  16.7 °C 29.89 in /  1012.1 hPa NNE 7.9 mph /  12.7 km/h 11.5 mph /  18.5 km/h 71 % 0.00 in /  0 mm
22:06 71.9 °F /  22.2 °C 61.6 °F /  16.4 °C 29.89 in /  1012.1 hPa NE 6.9 mph /  11.1 km/h 11.5 mph /  18.5 km/h 70 % 0.00 in /  0 mm
22:11 71.8 °F /  22.1 °C 61.9 °F /  16.6 °C 29.90 in /  1012.4 hPa NNE 7.2 mph /  11.6 km/h 10.4 mph /  16.7 km/h 71 % 0.00 in /  0 mm
22:16 71.7 °F /  22.1 °C 61.4 °F /  16.3 °C 29.89 in /  1012.1 hPa NNE 3.9 mph /  6.3 km/h 9.2 mph /  14.8 km/h 70 % 0.00 in /  0 mm
22:21 71.6 °F /  22 °C 61.7 °F /  16.5 °C 29.89 in /  1012.1 hPa North 6.8 mph /  10.9 km/h 10.4 mph /  16.7 km/h 71 % 0.00 in /  0 mm
22:26 71.6 °F /  22 °C 61.3 °F /  16.3 °C 29.90 in /  1012.4 hPa NNE 5.1 mph /  8.2 km/h 10.4 mph /  16.7 km/h 70 % 0.00 in /  0 mm
22:31 71.5 °F /  21.9 °C 61.6 °F /  16.4 °C 29.90 in /  1012.4 hPa NE 4.8 mph /  7.7 km/h 12.7 mph /  20.4 km/h 71 % 0.00 in /  0 mm
22:36 71.5 °F /  21.9 °C 61.6 °F /  16.4 °C 29.90 in /  1012.4 hPa North 7.6 mph /  12.2 km/h 13.0 mph /  20.9 km/h 71 % 0.00 in /  0 mm
22:41 71.4 °F /  21.9 °C 61.1 °F /  16.2 °C 29.90 in /  1012.4 hPa NNE 7.1 mph /  11.4 km/h 11.0 mph /  17.7 km/h 70 % 0.00 in /  0 mm
22:46 71.4 °F /  21.9 °C 61.5 °F /  16.4 °C 29.90 in /  1012.4 hPa NNE 5.8 mph /  9.3 km/h 11.5 mph /  18.5 km/h 71 % 0.00 in /  0 mm
22:51 71.3 °F /  21.8 °C 61.4 °F /  16.3 °C 29.90 in /  1012.4 hPa NNE 8.6 mph /  13.8 km/h 11.5 mph /  18.5 km/h 71 % 0.00 in /  0 mm
22:56 71.2 °F /  21.8 °C 60.9 °F /  16.1 °C 29.90 in /  1012.4 hPa NNE 6.0 mph /  9.7 km/h 9.2 mph /  14.8 km/h 70 % 0.00 in /  0 mm
23:01 71.2 °F /  21.8 °C 61.3 °F /  16.3 °C 29.90 in /  1012.4 hPa NNE 6.9 mph /  11.1 km/h 9.2 mph /  14.8 km/h 71 % 0.00 in /  0 mm
23:06 71.1 °F /  21.7 °C 61.2 °F /  16.2 °C 29.90 in /  1012.4 hPa NNE 4.5 mph /  7.2 km/h 7.0 mph /  11.3 km/h 71 % 0.00 in /  0 mm
23:11 71.0 °F /  21.7 °C 61.1 °F /  16.2 °C 29.90 in /  1012.4 hPa NNE 5.6 mph /  9 km/h 6.9 mph /  11.1 km/h 71 % 0.00 in /  0 mm
23:16 71.0 °F /  21.7 °C 61.1 °F /  16.2 °C 29.90 in /  1012.4 hPa NNE 6.0 mph /  9.7 km/h 11.5 mph /  18.5 km/h 71 % 0.00 in /  0 mm
23:21 70.9 °F /  21.6 °C 61.4 °F /  16.3 °C 29.90 in /  1012.4 hPa NE 5.9 mph /  9.5 km/h 7.0 mph /  11.3 km/h 72 % 0.00 in /  0 mm
23:26 70.9 °F /  21.6 °C 61.4 °F /  16.3 °C 29.90 in /  1012.4 hPa NNE 9.1 mph /  14.6 km/h 14.0 mph /  22.5 km/h 72 % 0.00 in /  0 mm
23:31 70.9 °F /  21.6 °C 61.4 °F /  16.3 °C 29.90 in /  1012.4 hPa NE 8.6 mph /  13.8 km/h 11.5 mph /  18.5 km/h 72 % 0.00 in /  0 mm
23:36 70.8 °F /  21.6 °C 61.7 °F /  16.5 °C 29.90 in /  1012.4 hPa NNW 5.4 mph /  8.7 km/h 9.0 mph /  14.5 km/h 73 % 0.00 in /  0 mm
23:42 70.8 °F /  21.6 °C 61.7 °F /  16.5 °C 29.91 in /  1012.8 hPa NNE 7.0 mph /  11.3 km/h 12.7 mph /  20.4 km/h 73 % 0.00 in /  0 mm
23:47 70.7 °F /  21.5 °C 61.6 °F /  16.4 °C 29.91 in /  1012.8 hPa NNW 6.9 mph /  11.1 km/h 9.2 mph /  14.8 km/h 73 % 0.00 in /  0 mm
23:52 70.7 °F /  21.5 °C 61.6 °F /  16.4 °C 29.91 in /  1012.8 hPa North 7.8 mph /  12.6 km/h 11.5 mph /  18.5 km/h 73 % 0.00 in /  0 mm
23:57 70.5 °F /  21.4 °C 61.4 °F /  16.3 °C 29.90 in /  1012.4 hPa NNE 6.9 mph /  11.1 km/h 12.7 mph /  20.4 km/h 73 % 0.00 in /  0 mm
Crab Meadow Weather
Compliments of Weather Underground - 3 mb

Script developed by  Jim McMurry - jmcmurry@mwt.net Adapted for the template by  Wim van der Kuil - Leuven-Template.eu

Hurricanes: Hurricanes are classified into five categories, based on their wind speeds and potential to cause damage. * Category One -- Winds 74-95 miles per hour * Category Two -- Winds 96-110 miles per hour * Category Three -- Winds 111-130 miles per hour * Category Four -- Winds 131-155 miles per hour * Category Five -- Winds greater than 155 miles per hour.